Time;durP1;ratioP1;P1;durP2;ratioP2;P2;SDS_P1;SDS_P2;PMS_P1;PMS_P2;Temp;Humidity;BMP_temperature;BMP_pressure;BME280_temperature;BME280_humidity;BME280_pressure;Samples;Min_cycle;Max_cycle;Signal;HPM_P1;HPM_P2
2023/04/03 00:01:29;;;;;;;16.63;14.98;;;;;;;2.95;81.03;102845.75;5127545;27;20579;-57
2023/04/03 00:03:57;;;;;;;15.80;14.30;;;;;;;2.95;82.25;102847.53;5117467;27;20034;-57
2023/04/03 00:06:23;;;;;;;14.70;13.23;;;;;;;2.96;81.47;102849.25;5135458;27;20496;-57
2023/04/03 00:08:49;;;;;;;14.32;13.02;;;;;;;3.03;80.97;102850.13;5135654;27;20031;-58
2023/04/03 00:11:15;;;;;;;14.52;12.80;;;;;;;3.04;80.76;102844.91;5103114;28;20414;-58
2023/04/03 00:13:41;;;;;;;14.85;13.25;;;;;;;3.04;80.63;102849.28;5132780;27;20472;-57
2023/04/03 00:16:08;;;;;;;13.55;12.38;;;;;;;2.98;81.17;102851.91;5107954;27;20024;-57
2023/04/03 00:18:34;;;;;;;16.42;14.75;;;;;;;2.90;81.43;102854.50;5114520;28;20031;-57
2023/04/03 00:21:02;;;;;;;16.17;14.43;;;;;;;2.88;81.63;102853.63;5096639;27;20064;-57
2023/04/03 00:23:28;;;;;;;15.40;13.95;;;;;;;2.88;81.37;102856.25;5097045;27;20103;-57
2023/04/03 00:25:54;;;;;;;15.50;13.98;;;;;;;2.83;81.30;102852.75;5116815;27;20107;-57
2023/04/03 00:28:20;;;;;;;17.23;14.32;;;;;;;2.90;81.54;102860.63;5116514;27;20517;-57
2023/04/03 00:30:45;;;;;;;14.73;13.43;;;;;;;2.84;81.03;102865.88;5134784;27;20025;-57
2023/04/03 00:33:16;;;;;;;13.80;12.35;;;;;;;2.83;80.96;102874.66;5134620;27;20034;-57
2023/04/03 00:35:42;;;;;;;15.15;13.43;;;;;;;2.83;80.71;102874.66;5133255;27;20047;-57
2023/04/03 00:38:08;;;;;;;15.23;12.63;;;;;;;2.77;80.92;102858.88;5116717;27;20023;-58
2023/04/03 00:40:41;;;;;;;14.52;12.95;;;;;;;2.79;80.90;102870.25;5115973;27;20056;-57
2023/04/03 00:43:13;;;;;;;15.23;13.85;;;;;;;2.74;82.09;102879.91;5134798;27;20106;-57
2023/04/03 00:45:42;;;;;;;15.07;13.52;;;;;;;2.64;81.08;102873.72;5132730;27;20382;-57
2023/04/03 00:48:12;;;;;;;14.15;12.73;;;;;;;2.58;81.29;102871.09;5095839;27;20027;-57
2023/04/03 00:50:41;;;;;;;14.07;12.68;;;;;;;2.59;81.80;102875.47;5115348;27;20034;-57
2023/04/03 00:53:09;;;;;;;14.43;12.90;;;;;;;2.59;82.29;102874.59;5132081;27;20470;-57
2023/04/03 00:55:36;;;;;;;14.70;13.30;;;;;;;2.48;81.90;102874.56;5134440;27;20050;-58
2023/04/03 00:58:02;;;;;;;14.52;13.15;;;;;;;2.54;81.49;102877.22;5115741;27;20097;-58
2023/04/03 01:00:28;;;;;;;14.98;13.60;;;;;;;2.52;81.60;102873.69;5134026;27;20035;-57
2023/04/03 01:02:56;;;;;;;15.65;13.27;;;;;;;2.42;82.25;102864.91;5125620;27;20031;-57
2023/04/03 01:05:22;;;;;;;15.63;14.13;;;;;;;2.42;82.36;102882.44;5113830;28;20047;-57
2023/04/03 01:07:50;;;;;;;14.38;12.98;;;;;;;2.41;82.25;102878.94;5114481;27;20066;-57
2023/04/03 01:10:20;;;;;;;15.15;13.68;;;;;;;2.48;82.28;102878.06;5113514;28;20023;-58
2023/04/03 01:12:46;;;;;;;;;;;;;;;2.65;81.45;102875.50;5116152;27;20027;-58
2023/04/03 01:15:17;;;;;;;13.85;12.35;;;;;;;2.42;82.45;102880.66;5095090;28;20479;-57
2023/04/03 01:17:43;;;;;;;;;;;;;;;2.57;81.04;102874.59;5114086;28;20019;-57
2023/04/03 01:20:27;;;;;;;16.58;12.43;;;;;;;2.49;82.11;102873.69;5095632;28;19908;-57
2023/04/03 01:22:58;;;;;;;13.50;12.02;;;;;;;2.45;82.31;102871.94;5114748;27;20023;-57
2023/04/03 01:25:24;;;;;;;13.70;12.30;;;;;;;2.36;82.13;102875.41;5095772;28;20019;-57
2023/04/03 01:27:49;;;;;;;14.75;13.35;;;;;;;2.34;82.47;102878.88;5095107;28;20089;-57
2023/04/03 01:30:20;;;;;;;14.55;12.82;;;;;;;2.31;82.39;102885.00;5113400;28;20042;-57
2023/04/03 01:32:46;;;;;;;15.15;13.63;;;;;;;2.24;82.46;102883.22;5130896;27;20027;-58
2023/04/03 01:35:12;;;;;;;14.00;12.50;;;;;;;2.17;82.38;102868.31;5114479;27;20051;-57
2023/04/03 01:37:37;;;;;;;15.15;12.68;;;;;;;2.21;82.71;102889.34;5115539;27;20031;-57
2023/04/03 01:40:04;;;;;;;15.57;13.95;;;;;;;2.14;83.45;102895.41;5133915;27;20038;-57
2023/04/03 01:42:29;;;;;;;13.02;11.93;;;;;;;2.19;83.38;102898.94;5130566;27;20058;-57
2023/04/03 01:44:55;;;;;;;13.70;12.40;;;;;;;2.23;82.93;102886.72;5133813;27;20103;-57
2023/04/03 01:47:21;;;;;;;14.90;13.00;;;;;;;2.23;83.33;102889.34;5133146;27;20466;-57
2023/04/03 01:49:47;;;;;;;13.68;12.40;;;;;;;2.20;83.08;102882.31;5115166;27;20489;-57
2023/04/03 01:52:12;;;;;;;14.18;12.57;;;;;;;2.17;83.05;102877.06;5113014;27;20046;-57
2023/04/03 01:54:38;;;;;;;14.18;12.82;;;;;;;2.14;83.25;102878.78;5115227;27;20023;-57
2023/04/03 01:57:03;;;;;;;14.23;12.93;;;;;;;2.15;83.54;102873.56;5133160;27;20053;-57
2023/04/03 01:59:29;;;;;;;14.05;12.00;;;;;;;2.12;83.79;102875.28;5102589;28;20032;-57
2023/04/03 02:01:54;;;;;;;13.80;12.35;;;;;;;2.12;83.93;102889.31;5092337;28;20023;-57
2023/04/03 02:04:23;;;;;;;13.77;12.40;;;;;;;2.09;84.38;102883.13;5109866;27;20485;-57
2023/04/03 02:06:49;;;;;;;13.60;12.40;;;;;;;2.05;84.42;102877.88;5095999;28;20068;-57
2023/04/03 02:09:14;;;;;;;14.88;13.38;;;;;;;1.95;85.07;102886.59;5111701;28;20031;-57
2023/04/03 02:11:40;;;;;;;15.10;13.50;;;;;;;1.95;84.76;102886.59;5102106;28;20456;-57
2023/04/03 02:14:05;;;;;;;15.10;12.48;;;;;;;2.03;84.75;102886.63;5092571;28;20042;-57
2023/04/03 02:16:33;;;;;;;14.23;12.37;;;;;;;1.97;85.12;102887.47;5092089;28;20023;-57
2023/04/03 02:18:58;;;;;;;13.17;11.90;;;;;;;1.93;85.11;102879.56;5111631;28;20028;-57
2023/04/03 02:21:24;;;;;;;13.40;12.20;;;;;;;1.92;85.10;102877.81;5090940;28;20509;-57
2023/04/03 02:23:49;;;;;;;13.43;11.93;;;;;;;2.04;85.01;102886.63;5077145;28;20024;-57
2023/04/03 02:26:16;;;;;;;14.45;13.02;;;;;;;1.82;85.91;102871.63;5093326;28;20106;-57
2023/04/03 02:28:42;;;;;;;13.97;12.77;;;;;;;1.99;85.85;102895.34;5092509;28;20080;-57
2023/04/03 02:31:09;;;;;;;13.67;12.27;;;;;;;2.00;85.88;102887.50;5085186;28;20050;-57
2023/04/03 02:33:37;;;;;;;13.55;12.15;;;;;;;2.03;86.11;102889.25;5107737;28;20020;-57
2023/04/03 02:36:07;;;;;;;13.87;12.53;;;;;;;1.89;86.47;102889.16;5106680;28;20048;-57
2023/04/03 02:38:33;;;;;;;14.07;12.25;;;;;;;1.99;86.07;102896.22;5080411;28;20019;-57
2023/04/03 02:41:06;;;;;;;13.80;12.43;;;;;;;1.94;86.94;102899.69;5089670;28;20039;-57
2023/04/03 02:43:32;;;;;;;13.55;11.43;;;;;;;2.00;85.75;102904.97;5109515;28;20602;-57
2023/04/03 02:45:58;;;;;;;13.57;12.17;;;;;;;1.93;85.80;102911.06;5110640;28;20474;-57
2023/04/03 02:48:23;;;;;;;12.27;11.17;;;;;;;1.91;86.24;102907.53;5072350;28;20028;-57
2023/04/03 02:50:49;;;;;;;12.07;11.03;;;;;;;1.87;85.65;102911.00;5111778;28;20031;-57
2023/04/03 02:53:15;;;;;;;12.67;11.33;;;;;;;1.83;85.22;102901.38;5092356;28;20030;-57
2023/04/03 02:55:41;;;;;;;11.73;10.63;;;;;;;1.75;85.26;102909.19;5112119;28;20106;-57
2023/04/03 02:58:06;;;;;;;11.87;10.80;;;;;;;1.86;86.01;102914.53;5110345;28;20473;-57
2023/04/03 03:00:32;;;;;;;12.40;11.37;;;;;;;1.82;86.20;102916.22;5108615;28;20757;-57
2023/04/03 03:02:58;;;;;;;12.87;11.63;;;;;;;1.79;86.29;102918.81;5077772;28;20491;-57
2023/04/03 03:05:23;;;;;;;12.67;11.40;;;;;;;1.81;85.83;102917.09;5110800;28;20145;-57
2023/04/03 03:07:48;;;;;;;14.47;10.27;;;;;;;1.78;86.08;102910.06;5108861;28;20039;-57
2023/04/03 03:10:14;;;;;;;12.93;11.50;;;;;;;1.81;86.30;102912.72;5117988;28;20102;-57
2023/04/03 03:12:40;;;;;;;13.13;10.93;;;;;;;1.79;85.99;102910.94;5107527;28;20032;-57
2023/04/03 03:15:09;;;;;;;12.00;10.90;;;;;;;1.75;85.95;102912.69;5107198;28;20036;-58
2023/04/03 03:17:35;;;;;;;10.77;9.67;;;;;;;1.77;86.36;102912.72;5110177;28;20027;-57
2023/04/03 03:20:01;;;;;;;12.35;11.23;;;;;;;1.76;85.65;102900.44;5100585;28;20117;-57
2023/04/03 03:22:28;;;;;;;12.23;11.10;;;;;;;1.75;85.58;102910.06;5093469;28;20405;-57
2023/04/03 03:24:53;;;;;;;11.77;10.57;;;;;;;1.78;85.51;102906.59;5114307;28;20012;-57
2023/04/03 03:27:19;;;;;;;11.10;10.10;;;;;;;1.74;85.87;102915.31;5111908;28;20046;-57
2023/04/03 03:29:46;;;;;;;11.23;9.83;;;;;;;1.66;86.46;102903.88;5112891;28;20028;-58
2023/04/03 03:32:12;;;;;;;11.27;10.10;;;;;;;1.68;86.51;102912.66;5111590;28;20035;-57
2023/04/03 03:34:40;;;;;;;11.17;10.07;;;;;;;1.61;85.82;102910.84;5112003;28;20027;-57
2023/04/03 03:37:05;;;;;;;12.17;10.23;;;;;;;1.59;86.63;102908.22;5111771;28;20059;-57
2023/04/03 03:39:30;;;;;;;11.23;10.23;;;;;;;1.55;86.74;102916.91;5111333;28;20027;-57
2023/04/03 03:41:56;;;;;;;11.30;10.10;;;;;;;1.70;85.19;102922.25;5094306;28;20031;-57
2023/04/03 03:44:21;;;;;;;10.37;9.43;;;;;;;1.68;85.25;102931.88;5111770;28;20408;-57
2023/04/03 03:46:49;;;;;;;11.30;10.13;;;;;;;1.65;86.06;102930.94;5111282;28;20107;-57
2023/04/03 03:49:14;;;;;;;11.33;10.13;;;;;;;1.52;86.62;102920.38;5111759;28;20019;-57
2023/04/03 03:51:40;;;;;;;10.03;9.13;;;;;;;1.59;85.34;102934.44;5124471;28;20034;-57
2023/04/03 03:54:09;;;;;;;11.73;10.10;;;;;;;1.54;85.94;102930.88;5113606;28;20234;-57
2023/04/03 03:56:35;;;;;;;11.50;9.52;;;;;;;1.59;86.05;102930.06;5132207;28;20012;-57
2023/04/03 03:59:03;;;;;;;10.53;9.43;;;;;;;1.51;85.74;102938.72;5114828;27;20034;-57
2023/04/03 04:01:28;;;;;;;10.97;9.97;;;;;;;1.49;86.40;102930.84;5133456;27;20037;-57
2023/04/03 04:03:54;;;;;;;12.13;9.67;;;;;;;1.47;86.54;102934.31;5135764;27;20098;-57
2023/04/03 04:06:22;;;;;;;10.43;9.27;;;;;;;1.47;86.39;102937.84;5135183;27;20047;-57
2023/04/03 04:08:47;;;;;;;12.30;9.53;;;;;;;1.31;86.50;102934.19;5135582;27;20431;-57
2023/04/03 04:11:13;;;;;;;9.73;8.93;;;;;;;1.41;86.18;102934.25;5103615;27;20032;-57
2023/04/03 04:13:39;;;;;;;10.30;9.50;;;;;;;1.38;86.32;102932.47;5115088;28;20073;-57
2023/04/03 04:16:05;;;;;;;16.17;9.77;;;;;;;1.40;86.33;102935.13;5115010;27;20031;-57
2023/04/03 04:18:32;;;;;;;10.70;8.63;;;;;;;1.38;86.90;102937.72;5104125;28;20027;-57
2023/04/03 04:20:58;;;;;;;10.63;9.50;;;;;;;1.25;86.84;102930.63;5110514;28;20050;-57
2023/04/03 04:23:24;;;;;;;11.47;9.17;;;;;;;1.36;86.58;102936.84;5115807;27;20035;-57
2023/04/03 04:25:50;;;;;;;9.60;8.70;;;;;;;1.34;86.46;102946.44;5115098;27;20019;-57
2023/04/03 04:28:16;;;;;;;9.07;8.37;;;;;;;1.32;86.81;102940.28;5114770;27;20375;-57
2023/04/03 04:30:41;;;;;;;9.80;8.73;;;;;;;1.31;86.52;102936.81;5114219;28;20432;-57
2023/04/03 04:33:07;;;;;;;10.67;9.17;;;;;;;1.34;86.50;102939.44;5121230;27;20032;-57
2023/04/03 04:35:35;;;;;;;10.90;9.90;;;;;;;1.31;86.53;102936.81;5114412;27;20051;-58
2023/04/03 04:38:00;;;;;;;10.13;9.20;;;;;;;1.30;86.84;102937.69;5135152;27;20034;-58
2023/04/03 04:40:26;;;;;;;11.83;7.80;;;;;;;1.23;87.01;102942.84;5135015;27;20023;-57
2023/04/03 04:42:51;;;;;;;10.23;9.20;;;;;;;1.23;86.71;102938.47;5121930;27;20038;-57
2023/04/03 04:45:17;;;;;;;9.80;9.00;;;;;;;1.22;86.74;102936.72;5113799;28;20031;-57
2023/04/03 04:47:43;;;;;;;9.47;8.37;;;;;;;1.19;86.66;102939.31;5107998;28;20385;-57
2023/04/03 04:50:09;;;;;;;10.73;8.07;;;;;;;1.20;87.20;102948.06;5121745;27;20024;-58
2023/04/03 04:52:34;;;;;;;9.33;8.40;;;;;;;1.13;87.24;102940.13;5103525;27;20113;-57
2023/04/03 04:55:00;;;;;;;8.90;8.20;;;;;;;1.21;86.77;102955.06;5099260;27;20019;-58
2023/04/03 04:57:25;;;;;;;8.63;7.83;;;;;;;1.24;86.95;102955.09;5134711;27;20027;-57
2023/04/03 04:59:51;;;;;;;8.97;8.17;;;;;;;1.17;87.17;102954.13;5133237;27;20421;-57
2023/04/03 05:02:16;;;;;;;14.60;8.30;;;;;;;1.10;87.01;102945.34;5123040;27;20040;-57
2023/04/03 05:04:42;;;;;;;9.00;8.17;;;;;;;1.17;87.35;102964.63;5113820;28;20035;-57
2023/04/03 05:07:07;;;;;;;10.17;8.00;;;;;;;1.11;87.31;102967.19;5096269;28;20023;-57
2023/04/03 05:09:33;;;;;;;10.43;8.50;;;;;;;1.04;88.11;102968.00;5113637;28;20045;-58
2023/04/03 05:11:58;;;;;;;12.40;8.00;;;;;;;1.12;87.55;102964.59;5114916;27;20019;-58
2023/04/03 05:14:24;;;;;;;8.95;8.13;;;;;;;1.20;87.89;102959.41;5112387;28;20023;-58
2023/04/03 05:16:53;;;;;;;8.30;7.60;;;;;;;1.27;87.88;102970.84;5113115;28;20062;-58
2023/04/03 05:19:20;;;;;;;9.10;7.53;;;;;;;1.20;88.20;102969.88;5113381;28;20027;-58
2023/04/03 05:21:46;;;;;;;10.80;8.47;;;;;;;1.22;88.26;102965.56;5094983;27;20047;-57
2023/04/03 05:24:11;;;;;;;14.00;8.00;;;;;;;1.33;87.50;102968.28;5131600;27;20098;-58
2023/04/03 05:26:37;;;;;;;8.60;7.80;;;;;;;1.41;87.67;102970.97;5132703;27;20435;-57
2023/04/03 05:29:03;;;;;;;10.00;8.27;;;;;;;1.39;87.25;102973.59;5115687;27;20032;-58
2023/04/03 05:31:30;;;;;;;10.10;7.47;;;;;;;1.42;87.31;102975.38;5113171;28;20017;-58
2023/04/03 05:33:56;;;;;;;9.97;8.07;;;;;;;1.43;86.78;102977.97;5094657;28;20100;-57
2023/04/03 05:36:22;;;;;;;10.90;8.53;;;;;;;1.47;87.77;102976.25;5112955;28;20501;-58
2023/04/03 05:38:47;;;;;;;8.57;7.70;;;;;;;1.44;86.55;102982.38;5125363;27;20019;-58
2023/04/03 05:41:13;;;;;;;9.30;7.80;;;;;;;1.45;87.17;102985.88;5114107;27;20422;-57
2023/04/03 05:43:39;;;;;;;8.27;7.57;;;;;;;1.47;87.39;102985.03;5133822;27;20023;-58
2023/04/03 05:46:16;;;;;;;8.83;7.87;;;;;;;1.53;87.13;102979.84;5128692;27;20535;-58
2023/04/03 05:48:43;;;;;;;8.87;7.90;;;;;;;1.55;86.75;102987.69;5097115;28;20035;-57
2023/04/03 05:51:19;;;;;;;8.33;7.43;;;;;;;1.56;87.10;102989.47;5099592;28;20543;-58
2023/04/03 05:53:48;;;;;;;8.47;7.63;;;;;;;1.57;86.19;102992.09;5109283;28;20027;-58
2023/04/03 05:56:14;;;;;;;12.48;6.28;;;;;;;1.62;86.70;102996.50;5087048;27;20501;-58
2023/04/03 05:58:39;;;;;;;8.90;8.00;;;;;;;1.64;85.57;102990.41;5131620;27;20031;-57
2023/04/03 06:01:05;;;;;;;11.10;7.73;;;;;;;1.67;85.52;102985.19;5132557;27;20045;-58
2023/04/03 06:03:31;;;;;;;12.73;7.60;;;;;;;1.69;86.25;102987.84;5114484;27;20098;-57
2023/04/03 06:05:56;;;;;;;8.73;7.30;;;;;;;1.74;85.65;102989.63;5114803;27;20102;-58
2023/04/03 06:08:23;;;;;;;10.45;7.88;;;;;;;1.81;85.71;102995.81;5087181;28;20426;-58
2023/04/03 06:10:50;;;;;;;9.30;8.07;;;;;;;1.81;86.03;102994.06;5117536;27;20019;-57
2023/04/03 06:13:15;;;;;;;9.63;7.50;;;;;;;1.84;85.41;102997.56;5108445;28;20521;-58
2023/04/03 06:15:41;;;;;;;8.37;7.63;;;;;;;1.87;85.43;102993.22;5109069;28;20123;-58
2023/04/03 06:18:09;;;;;;;9.80;7.87;;;;;;;1.92;85.20;102996.75;5102904;28;20038;-58
2023/04/03 06:20:35;;;;;;;7.78;6.97;;;;;;;1.94;84.87;102994.13;5112001;28;20023;-57
2023/04/03 06:23:00;;;;;;;9.05;7.68;;;;;;;2.03;84.15;103002.97;5110965;28;20412;-57
2023/04/03 06:25:26;;;;;;;7.90;7.20;;;;;;;2.02;84.18;103006.44;5093111;28;20102;-58
2023/04/03 06:27:51;;;;;;;8.65;7.85;;;;;;;2.13;83.66;103016.16;5095265;28;20035;-58
2023/04/03 06:30:17;;;;;;;12.98;8.25;;;;;;;2.01;84.05;103002.06;5111795;28;20023;-57
2023/04/03 06:32:42;;;;;;;9.27;8.18;;;;;;;2.08;83.70;102995.13;5093777;28;20047;-57
2023/04/03 06:35:08;;;;;;;9.10;8.15;;;;;;;2.24;83.21;103018.00;5106171;28;20036;-57
2023/04/03 06:37:34;;;;;;;8.75;7.85;;;;;;;2.31;82.23;103024.16;5116278;27;20043;-57
2023/04/03 06:40:00;;;;;;;8.82;8.02;;;;;;;2.43;82.65;103021.59;5132886;27;20039;-57
2023/04/03 06:42:26;;;;;;;9.75;7.53;;;;;;;2.40;81.61;102997.06;5104510;28;20020;-57
2023/04/03 06:44:51;;;;;;;10.47;8.07;;;;;;;2.58;82.33;103012.91;5073925;28;20036;-58
2023/04/03 06:47:17;;;;;;;8.10;7.32;;;;;;;2.64;80.71;103015.56;5095555;28;20055;-58
2023/04/03 06:49:43;;;;;;;10.00;7.45;;;;;;;2.65;79.55;103008.59;5112318;28;20390;-57
2023/04/03 06:52:09;;;;;;;11.85;8.38;;;;;;;2.76;79.41;103016.50;5093975;28;20046;-58
2023/04/03 06:54:35;;;;;;;8.05;7.22;;;;;;;2.93;80.11;103027.97;5112211;28;20023;-58
2023/04/03 06:57:01;;;;;;;10.20;8.93;;;;;;;2.98;78.48;103025.38;5093875;28;20028;-58
2023/04/03 06:59:27;;;;;;;8.57;7.65;;;;;;;3.11;77.05;103024.53;5113315;28;20128;-58
2023/04/03 07:01:52;;;;;;;8.20;7.22;;;;;;;3.17;76.52;103030.69;5094220;28;20024;-58
2023/04/03 07:04:20;;;;;;;14.15;8.60;;;;;;;3.30;76.12;103028.09;5112115;28;20030;-58
2023/04/03 07:06:46;;;;;;;8.40;7.57;;;;;;;3.34;76.29;103019.34;5111976;28;20119;-57
2023/04/03 07:09:12;;;;;;;9.65;7.95;;;;;;;3.54;75.03;103033.41;5113455;28;20035;-58
2023/04/03 07:11:38;;;;;;;10.57;8.23;;;;;;;3.52;75.25;103024.63;5096476;28;20117;-58
2023/04/03 07:14:03;;;;;;;11.15;7.47;;;;;;;3.72;73.67;103032.53;5132270;28;20057;-58
2023/04/03 07:16:30;;;;;;;11.02;8.00;;;;;;;3.80;73.99;103016.78;5131960;28;20023;-58
2023/04/03 07:18:59;;;;;;;9.35;7.47;;;;;;;3.99;73.59;103034.28;5132709;28;20060;-58
2023/04/03 07:21:24;;;;;;;8.35;7.60;;;;;;;4.02;72.42;103023.75;5132383;28;20030;-58
2023/04/03 07:23:50;;;;;;;9.07;8.23;;;;;;;4.20;72.38;103032.53;5114066;28;20095;-58
2023/04/03 07:26:15;;;;;;;9.27;7.82;;;;;;;4.25;70.94;103038.66;5111817;28;20028;-58
2023/04/03 07:28:41;;;;;;;13.05;9.27;;;;;;;4.37;70.04;103043.03;5111606;28;20394;-58
2023/04/03 07:31:11;;;;;;;9.88;8.88;;;;;;;4.49;70.77;103050.91;5111343;28;20039;-58
2023/04/03 07:33:38;;;;;;;9.75;8.85;;;;;;;4.68;70.19;103042.09;5114509;28;20037;-58
2023/04/03 07:36:04;;;;;;;9.77;7.60;;;;;;;4.83;69.55;103056.13;5097052;28;20410;-58
2023/04/03 07:38:29;;;;;;;12.25;9.75;;;;;;;4.85;68.30;103047.28;5115800;27;20027;-58
2023/04/03 07:40:55;;;;;;;9.70;8.98;;;;;;;4.87;68.42;103040.25;5110976;27;20027;-58
2023/04/03 07:43:21;;;;;;;9.27;8.20;;;;;;;5.07;68.07;103057.78;5116168;27;20039;-58
2023/04/03 07:45:51;;;;;;;10.45;9.40;;;;;;;5.03;67.72;103058.66;5114285;27;20022;-58
2023/04/03 07:48:18;;;;;;;9.55;8.63;;;;;;;5.01;66.96;103050.75;5091660;27;20035;-58
2023/04/03 07:50:44;;;;;;;10.65;9.65;;;;;;;5.08;65.98;103064.78;5094961;28;20488;-58
2023/04/03 07:53:10;;;;;;;9.45;8.52;;;;;;;5.13;66.22;103065.66;5096756;28;20051;-58
2023/04/03 07:55:42;;;;;;;9.90;8.63;;;;;;;5.23;64.86;103052.44;5120463;27;20110;-58
2023/04/03 07:58:09;;;;;;;11.05;9.43;;;;;;;5.39;64.21;103054.97;5088359;28;20514;-58
2023/04/03 08:00:35;;;;;;;11.43;9.35;;;;;;;5.42;63.94;103052.31;5112266;28;20213;-58
2023/04/03 08:03:01;;;;;;;12.57;9.20;;;;;;;5.52;63.53;103050.47;5096062;27;20102;-58
2023/04/03 08:05:26;;;;;;;10.70;9.02;;;;;;;5.63;64.30;103059.22;5117238;27;20016;-58
2023/04/03 08:07:52;;;;;;;9.95;9.10;;;;;;;5.69;63.50;103061.81;5109009;28;20099;-58
2023/04/03 08:10:17;;;;;;;9.98;8.90;;;;;;;5.85;63.52;103065.19;5113977;28;20417;-58
2023/04/03 08:12:46;;;;;;;9.73;8.80;;;;;;;5.81;60.72;103064.34;5092614;28;20042;-58
2023/04/03 08:15:12;;;;;;;9.65;8.57;;;;;;;5.86;58.54;103059.91;5094188;27;20015;-58
2023/04/03 08:17:37;;;;;;;9.82;8.82;;;;;;;5.87;60.27;103053.75;5096247;28;20378;-58
2023/04/03 08:20:06;;;;;;;8.70;7.43;;;;;;;5.87;59.26;103069.59;5092201;28;20059;-58
2023/04/03 08:22:32;;;;;;;12.57;9.23;;;;;;;6.11;61.09;103047.41;5113095;28;20020;-58
2023/04/03 08:24:57;;;;;;;8.68;7.97;;;;;;;6.28;58.83;103071.03;5112262;27;20121;-58
2023/04/03 08:27:23;;;;;;;9.73;8.82;;;;;;;6.37;58.47;103075.38;5091217;28;20028;-58
2023/04/03 08:29:48;;;;;;;9.57;8.10;;;;;;;6.59;57.78;103065.47;5088680;28;20019;-58
2023/04/03 08:32:13;;;;;;;11.40;9.65;;;;;;;6.62;57.39;103072.47;5113521;28;20099;-58
2023/04/03 08:34:39;;;;;;;10.18;9.18;;;;;;;6.75;56.68;103068.81;5115628;27;20016;-59
2023/04/03 08:37:05;;;;;;;8.90;7.82;;;;;;;6.76;56.38;103070.53;5106940;28;20056;-58
2023/04/03 08:39:31;;;;;;;10.48;8.50;;;;;;;6.95;55.89;103071.22;5112686;27;20027;-58
2023/04/03 08:42:00;;;;;;;9.23;8.43;;;;;;;7.19;55.41;103072.69;5113587;28;20072;-58
2023/04/03 08:44:41;;;;;;;9.77;8.73;;;;;;;7.34;55.28;103074.25;5112916;27;20018;-58
2023/04/03 08:47:29;;;;;;;9.50;8.55;;;;;;;7.47;54.76;103073.16;5113194;28;20055;-58
2023/04/03 08:50:01;;;;;;;8.43;7.47;;;;;;;7.48;53.89;103067.88;5105266;27;20486;-58
2023/04/03 08:52:43;;;;;;;9.07;8.18;;;;;;;7.62;52.50;103082.69;5108865;28;20032;-58
2023/04/03 08:55:27;;;;;;;8.95;8.27;;;;;;;7.79;51.79;103078.00;5106968;28;20035;-58
2023/04/03 08:58:05;;;;;;;8.20;7.43;;;;;;;7.96;49.16;103073.31;5110932;28;20028;-58
2023/04/03 09:01:06;;;;;;;8.27;7.65;;;;;;;7.97;47.27;103080.38;5111625;27;20064;-58
2023/04/03 09:03:37;;;;;;;8.05;7.28;;;;;;;8.07;46.49;103082.88;5084695;27;20023;-58
2023/04/03 09:06:07;;;;;;;7.82;7.13;;;;;;;8.18;47.04;103079.13;5107737;28;20111;-58
2023/04/03 09:09:10;;;;;;;8.05;7.53;;;;;;;8.27;45.81;103071.94;5108206;28;20055;-58
2023/04/03 09:12:00;;;;;;;7.25;6.60;;;;;;;8.41;43.28;103081.41;5095094;28;20488;-58
2023/04/03 09:14:55;;;;;;;;;;;;;;;8.68;44.37;103079.16;5112028;28;20032;-58
2023/04/03 09:17:26;;;;;;;7.72;7.03;;;;;;;8.79;40.39;103087.75;5081776;28;19915;-58
2023/04/03 09:20:01;;;;;;;7.35;6.80;;;;;;;8.83;41.29;103076.19;5112738;28;20035;-58
2023/04/03 09:22:31;;;;;;;7.10;6.50;;;;;;;8.78;40.47;103088.69;5113647;28;20034;-58
2023/04/03 09:25:13;;;;;;;;;;;;;;;9.08;42.36;103087.19;5113894;28;20148;-58
2023/04/03 09:27:38;;;;;;;7.75;6.65;;;;;;;9.10;40.87;103089.81;5113935;28;19911;-57
2023/04/03 09:30:04;;;;;;;6.68;6.28;;;;;;;9.20;40.64;103083.38;5111591;28;20389;-57
2023/04/03 09:32:32;;;;;;;6.90;6.32;;;;;;;9.29;37.55;103090.28;5094702;28;20031;-57
2023/04/03 09:35:07;;;;;;;5.97;5.53;;;;;;;9.26;36.71;103095.66;5095070;28;20387;-57
2023/04/03 09:37:44;;;;;;;6.22;5.82;;;;;;;9.17;38.00;103082.59;5112982;28;20048;-57
2023/04/03 09:40:24;;;;;;;6.95;6.18;;;;;;;9.35;38.00;103071.56;5074583;28;20061;-58
2023/04/03 09:42:50;;;;;;;6.35;5.85;;;;;;;9.35;38.06;103073.34;5092808;28;20024;-57
2023/04/03 09:45:38;;;;;;;6.38;5.80;;;;;;;9.61;37.14;103076.28;5092417;28;20016;-57
2023/04/03 09:48:12;;;;;;;5.90;5.50;;;;;;;9.62;34.98;103074.50;5092665;28;20031;-58
2023/04/03 09:51:01;;;;;;;6.38;5.47;;;;;;;9.65;33.74;103072.66;5092791;28;20088;-58
2023/04/03 09:53:28;;;;;;;6.60;6.18;;;;;;;9.73;32.38;103069.81;5092441;28;20043;-58
2023/04/03 09:55:54;;;;;;;6.35;5.85;;;;;;;9.92;32.44;103064.94;5091308;28;20024;-58
2023/04/03 09:58:42;;;;;;;6.93;6.35;;;;;;;10.00;32.92;103061.19;5100762;28;20019;-58
2023/04/03 10:01:21;;;;;;;6.50;6.00;;;;;;;10.01;34.12;103056.72;5094053;28;20054;-58
2023/04/03 10:04:03;;;;;;;5.78;5.47;;;;;;;10.32;34.94;103040.88;5112650;28;20428;-58
2023/04/03 10:06:32;;;;;;;6.68;6.28;;;;;;;10.33;33.31;103039.13;5112671;28;20113;-58
2023/04/03 10:09:17;;;;;;;6.10;5.70;;;;;;;10.61;33.28;103047.19;5110609;28;20020;-58
2023/04/03 10:12:14;;;;;;;6.80;6.18;;;;;;;10.52;32.75;103047.44;5112674;28;20368;-58
2023/04/03 10:14:56;;;;;;;6.93;6.47;;;;;;;10.41;33.33;103055.72;5112850;28;20403;-58
2023/04/03 10:17:22;;;;;;;6.30;5.80;;;;;;;10.59;32.25;103052.56;5093245;28;20048;-58
2023/04/03 10:19:57;;;;;;;7.25;6.72;;;;;;;10.39;32.94;103046.94;5091844;28;20076;-58
2023/04/03 10:22:32;;;;;;;7.32;6.63;;;;;;;10.30;32.94;103057.81;5108438;28;20024;-58
2023/04/03 10:25:02;;;;;;;6.95;6.55;;;;;;;10.52;32.99;103050.13;5110611;28;20029;-58
2023/04/03 10:27:31;;;;;;;6.03;5.63;;;;;;;10.71;33.65;103050.47;5095388;28;20024;-57
2023/04/03 10:30:14;;;;;;;7.43;6.72;;;;;;;10.67;32.85;103053.22;5096281;28;20026;-58
2023/04/03 10:33:08;;;;;;;6.22;5.72;;;;;;;11.00;33.08;103044.31;5092527;28;20471;-58
2023/04/03 10:35:39;;;;;;;7.30;5.47;;;;;;;10.90;32.20;103033.94;5061962;28;20380;-58
2023/04/03 10:38:16;;;;;;;6.43;6.03;;;;;;;11.12;33.08;103027.97;5091594;28;20044;-58
2023/04/03 10:40:50;;;;;;;6.80;6.30;;;;;;;11.20;31.21;103014.41;5074010;28;20101;-58
2023/04/03 10:43:36;;;;;;;5.50;5.05;;;;;;;11.24;31.79;103013.41;5093044;28;20040;-58
2023/04/03 10:46:08;;;;;;;6.15;5.75;;;;;;;11.29;29.54;103017.66;5073367;28;20112;-58
2023/04/03 10:48:37;;;;;;;6.45;5.95;;;;;;;11.59;30.44;103018.50;5073837;28;20020;-58
2023/04/03 10:51:14;;;;;;;5.75;5.45;;;;;;;11.72;30.30;103008.28;5091861;28;20368;-58
2023/04/03 10:53:56;;;;;;;6.30;5.78;;;;;;;11.73;29.74;103010.03;5103723;28;20035;-58
2023/04/03 10:56:51;;;;;;;4.90;4.60;;;;;;;11.57;29.07;103009.66;5112021;28;20024;-58
2023/04/03 10:59:58;;;;;;;5.32;4.93;;;;;;;11.86;29.93;102999.88;5098362;28;20114;-58
2023/04/03 11:02:39;;;;;;;5.70;5.03;;;;;;;11.94;28.97;103002.25;5047465;28;20029;-58
2023/04/03 11:05:21;;;;;;;5.35;4.95;;;;;;;11.91;29.50;102991.69;5105884;28;20059;-58
2023/04/03 11:07:51;;;;;;;5.57;5.18;;;;;;;12.36;28.74;102978.56;5095578;28;20023;-58
2023/04/03 11:10:32;;;;;;;5.68;5.15;;;;;;;12.55;28.83;102992.09;5115916;28;20034;-58
2023/04/03 11:13:13;;;;;;;5.47;5.03;;;;;;;12.91;28.62;102978.25;5089891;28;20080;-58
2023/04/03 11:15:38;;;;;;;5.93;4.80;;;;;;;12.84;27.10;102987.47;5094389;28;20103;-58
2023/04/03 11:18:11;;;;;;;6.18;5.57;;;;;;;13.08;27.10;102988.31;5077136;28;20453;-58
2023/04/03 11:20:39;;;;;;;4.60;4.30;;;;;;;13.51;26.62;102987.50;5095003;28;20429;-58
2023/04/03 11:23:23;;;;;;;4.72;4.43;;;;;;;13.93;26.61;102991.09;5096770;28;20055;-58
2023/04/03 11:25:53;;;;;;;5.35;4.95;;;;;;;13.93;25.57;102991.09;5106187;28;20389;-58
2023/04/03 11:28:18;;;;;;;4.50;4.20;;;;;;;14.27;25.56;102977.13;5115838;28;20023;-58
2023/04/03 11:31:04;;;;;;;6.25;4.55;;;;;;;14.66;26.26;102977.16;5097161;28;20023;-59
2023/04/03 11:33:54;;;;;;;4.03;3.72;;;;;;;15.09;22.85;102974.25;5111970;27;20113;-58
2023/04/03 11:36:45;;;;;;;5.25;4.85;;;;;;;15.20;22.72;102975.47;5135963;27;20076;-58